createdAt,value
2019-01-06T00:00:17.858Z,100455.00
2019-01-06T00:02:51.765Z,100468.00
2019-01-06T00:05:23.190Z,100458.00
2019-01-06T00:08:00.200Z,100469.00
2019-01-06T00:10:47.829Z,100467.00
2019-01-06T00:13:33.771Z,100464.00
2019-01-06T00:16:07.530Z,100465.00
2019-01-06T00:18:54.741Z,100475.00
2019-01-06T00:21:41.772Z,100474.00
2019-01-06T00:24:15.886Z,100476.00
2019-01-06T00:27:03.207Z,100483.00
2019-01-06T00:29:43.866Z,100484.00
2019-01-06T00:32:26.794Z,100495.00
2019-01-06T00:34:57.639Z,100490.00
2019-01-06T00:37:31.778Z,100501.00
2019-01-06T00:40:02.882Z,100502.00
2019-01-06T00:42:33.934Z,100509.00
2019-01-06T00:45:19.816Z,100508.00
2019-01-06T00:47:57.207Z,100513.00
2019-01-06T00:50:28.452Z,100519.00
2019-01-06T00:53:05.737Z,100510.00
2019-01-06T00:55:53.171Z,100515.00
2019-01-06T00:58:26.779Z,100515.00
2019-01-06T01:01:13.624Z,100512.00
2019-01-06T01:04:00.948Z,100527.00
2019-01-06T01:06:43.624Z,100524.00
2019-01-06T01:09:31.492Z,100517.00
2019-01-06T01:12:18.457Z,100527.00
2019-01-06T01:15:07.382Z,100522.00
2019-01-06T01:17:55.005Z,100525.00
2019-01-06T01:20:42.135Z,100531.00
2019-01-06T01:23:12.890Z,100527.00
2019-01-06T01:25:43.902Z,100538.00
2019-01-06T01:28:29.763Z,100540.00
2019-01-06T01:31:16.840Z,100546.00
2019-01-06T01:33:53.390Z,100542.00
2019-01-06T01:36:24.428Z,100548.00
2019-01-06T01:39:10.741Z,100548.00
2019-01-06T01:41:50.786Z,100540.00
2019-01-06T01:44:37.944Z,100551.00
2019-01-06T01:47:25.472Z,100541.00
2019-01-06T01:49:56.534Z,100544.00
2019-01-06T01:52:29.940Z,100546.00
2019-01-06T01:55:03.838Z,100555.00
2019-01-06T01:57:50.051Z,100549.00
2019-01-06T02:00:21.075Z,100538.00
2019-01-06T02:02:54.984Z,100537.00
2019-01-06T02:05:38.330Z,100542.00
2019-01-06T02:08:17.875Z,100538.00
2019-01-06T02:10:54.634Z,100543.00
2019-01-06T02:13:31.428Z,100543.00
2019-01-06T02:16:02.264Z,100531.00
2019-01-06T02:18:35.853Z,100537.00
2019-01-06T02:21:26.256Z,100534.00
2019-01-06T02:24:03.038Z,100544.00
2019-01-06T02:26:36.857Z,100542.00
2019-01-06T02:29:23.884Z,100542.00
2019-01-06T02:32:00.887Z,100542.00
2019-01-06T02:34:40.896Z,100550.00
2019-01-06T02:37:12.043Z,100551.00
2019-01-06T02:39:48.811Z,100558.00
2019-01-06T02:42:38.284Z,100556.00
2019-01-06T02:45:11.897Z,100572.00
2019-01-06T02:47:45.388Z,100569.00
2019-01-06T02:50:16.234Z,100570.00
2019-01-06T02:52:47.072Z,100574.00
2019-01-06T02:55:27.026Z,100568.00
2019-01-06T02:58:16.491Z,100569.00
2019-01-06T03:00:56.393Z,100571.00
2019-01-06T03:06:21.966Z,100566.00
2019-01-06T03:08:55.539Z,100570.00
2019-01-06T03:11:42.805Z,100566.00
2019-01-06T03:14:31.873Z,100573.00
2019-01-06T03:17:18.169Z,100562.00
2019-01-06T03:20:06.115Z,100573.00
2019-01-06T03:22:45.756Z,100568.00
2019-01-06T03:25:22.627Z,100566.00
2019-01-06T03:27:53.579Z,100566.00
2019-01-06T03:30:24.728Z,100571.00
2019-01-06T03:32:58.454Z,100566.00
2019-01-06T03:35:38.274Z,100564.00
2019-01-06T03:38:15.600Z,100560.00
2019-01-06T03:41:05.237Z,100566.00
2019-01-06T03:43:36.184Z,100569.00
2019-01-06T03:46:23.302Z,100572.00
2019-01-06T03:49:06.225Z,100568.00
2019-01-06T03:51:37.259Z,100569.00
2019-01-06T03:54:10.618Z,100572.00
2019-01-06T03:56:49.904Z,100587.00
2019-01-06T03:59:27.381Z,100586.00
2019-01-06T04:02:00.691Z,100588.00
2019-01-06T04:04:31.821Z,100576.00
2019-01-06T04:07:03.001Z,100581.00
2019-01-06T04:09:39.544Z,100579.00
2019-01-06T04:12:10.390Z,100582.00
2019-01-06T04:14:59.349Z,100577.00
2019-01-06T04:17:30.188Z,100593.00
2019-01-06T04:20:01.227Z,100591.00
2019-01-06T04:22:32.703Z,100591.00
2019-01-06T04:25:19.071Z,100583.00
2019-01-06T04:27:52.883Z,100590.00
2019-01-06T04:30:39.384Z,100587.00
2019-01-06T04:33:19.541Z,100593.00
2019-01-06T04:35:50.681Z,100598.00
2019-01-06T04:38:24.496Z,100598.00
2019-01-06T04:41:07.513Z,100600.00
2019-01-06T04:43:44.410Z,100602.00
2019-01-06T04:46:21.081Z,100606.00
2019-01-06T04:49:08.506Z,100617.00
2019-01-06T04:51:48.253Z,100616.00
2019-01-06T04:54:21.850Z,100617.00
2019-01-06T04:56:58.510Z,100611.00
2019-01-06T04:59:41.660Z,100623.00
2019-01-06T05:02:24.576Z,100618.00
2019-01-06T05:05:11.801Z,100622.00
2019-01-06T05:07:42.928Z,100633.00
2019-01-06T05:10:30.063Z,100635.00
2019-01-06T05:13:10.011Z,100634.00
2019-01-06T05:15:41.403Z,100636.00
2019-01-06T05:18:12.186Z,100641.00
2019-01-06T05:20:55.257Z,100636.00
2019-01-06T05:23:41.994Z,100637.00
2019-01-06T05:26:28.891Z,100639.00
2019-01-06T05:29:05.727Z,100638.00
2019-01-06T05:31:42.801Z,100631.00
2019-01-06T05:34:13.950Z,100639.00
2019-01-06T05:36:57.040Z,100634.00
2019-01-06T05:39:35.486Z,100641.00
2019-01-06T05:42:09.755Z,100646.00
2019-01-06T05:44:40.557Z,100651.00
2019-01-06T05:47:29.515Z,100661.00
2019-01-06T05:50:12.540Z,100662.00
2019-01-06T05:52:49.506Z,100655.00
2019-01-06T05:55:23.114Z,100663.00
2019-01-06T05:57:56.708Z,100655.00
2019-01-06T06:00:43.944Z,100661.00
2019-01-06T06:03:17.365Z,100662.00
2019-01-06T06:05:54.521Z,100650.00
2019-01-06T06:08:31.295Z,100655.00
2019-01-06T06:11:11.663Z,100660.00
2019-01-06T06:13:42.798Z,100658.00
2019-01-06T06:16:22.748Z,100663.00
2019-01-06T06:18:59.736Z,100665.00
2019-01-06T06:21:46.133Z,100664.00
2019-01-06T06:24:19.954Z,100667.00
2019-01-06T06:27:07.374Z,100662.00
2019-01-06T06:29:38.523Z,100668.00
2019-01-06T06:32:15.099Z,100673.00
2019-01-06T06:35:01.492Z,100681.00
2019-01-06T06:37:32.646Z,100684.00
2019-01-06T06:40:12.642Z,100688.00
2019-01-06T06:42:43.436Z,100692.00
2019-01-06T06:45:14.448Z,100683.00
2019-01-06T06:48:01.700Z,100691.00
2019-01-06T06:50:51.062Z,100686.00
2019-01-06T06:53:21.909Z,100699.00
2019-01-06T06:55:56.009Z,100700.00
2019-01-06T06:58:38.931Z,100715.00
2019-01-06T07:01:42.119Z,100713.00
2019-01-06T07:04:31.003Z,100713.00
2019-01-06T07:07:18.005Z,100718.00
2019-01-06T07:09:57.539Z,100716.00
2019-01-06T07:12:34.544Z,100722.00
2019-01-06T07:15:11.215Z,100730.00
2019-01-06T07:17:50.381Z,100716.00
2019-01-06T07:20:45.250Z,100732.00
2019-01-06T07:23:16.276Z,100736.00
2019-01-06T07:25:56.125Z,100721.00
2019-01-06T07:28:27.286Z,100718.00
2019-01-06T07:31:01.183Z,100742.00
2019-01-06T07:33:32.136Z,100740.00
2019-01-06T07:36:19.053Z,100748.00
2019-01-06T07:39:06.976Z,100746.00
2019-01-06T07:41:38.019Z,100740.00
2019-01-06T07:44:14.912Z,100748.00
2019-01-06T07:47:01.828Z,100748.00
2019-01-06T07:49:38.500Z,100736.00
2019-01-06T07:52:12.104Z,100741.00
2019-01-06T07:54:59.016Z,100756.00
2019-01-06T07:57:33.023Z,100763.00
2019-01-06T08:00:15.189Z,100762.00
2019-01-06T08:02:58.531Z,100758.00
2019-01-06T08:05:32.028Z,100761.00
2019-01-06T08:08:19.585Z,100766.00
2019-01-06T08:10:59.738Z,100762.00
2019-01-06T08:13:30.888Z,100770.00
2019-01-06T08:16:01.730Z,100770.00
2019-01-06T08:18:45.254Z,100769.00
2019-01-06T08:21:21.840Z,100778.00
2019-01-06T08:24:09.162Z,100774.00
2019-01-06T08:26:56.238Z,100772.00
2019-01-06T08:29:39.402Z,100766.00
2019-01-06T08:32:10.352Z,100771.00
2019-01-06T08:34:57.562Z,100776.00
2019-01-06T08:37:44.587Z,100781.00
2019-01-06T08:40:24.734Z,100793.00
2019-01-06T08:42:55.872Z,100791.00
2019-01-06T08:45:43.134Z,100787.00
2019-01-06T08:48:17.003Z,100800.00
2019-01-06T08:50:48.165Z,100790.00
2019-01-06T08:53:19.603Z,100792.00
2019-01-06T08:56:05.815Z,100786.00
2019-01-06T08:58:54.367Z,100789.00
2019-01-06T09:01:25.396Z,100799.00
2019-01-06T09:04:14.361Z,100798.00
2019-01-06T09:06:48.479Z,100805.00
2019-01-06T09:09:28.321Z,100799.00
2019-01-06T09:12:17.809Z,100812.00
2019-01-06T09:14:51.821Z,100814.00
2019-01-06T09:17:38.723Z,100821.00
2019-01-06T09:20:30.659Z,100815.00
2019-01-06T09:23:07.141Z,100819.00
2019-01-06T09:25:41.435Z,100822.00
2019-01-06T09:28:12.462Z,100825.00
2019-01-06T09:30:59.964Z,100817.00
2019-01-06T09:33:36.789Z,100816.00
2019-01-06T09:36:24.854Z,100825.00
2019-01-06T09:39:11.872Z,100816.00
2019-01-06T09:41:48.679Z,100826.00
2019-01-06T09:44:35.776Z,100825.00
2019-01-06T09:47:18.925Z,100814.00
2019-01-06T09:49:55.234Z,100816.00
2019-01-06T09:52:31.727Z,100827.00
2019-01-06T09:55:05.309Z,100826.00
2019-01-06T09:57:52.138Z,100820.00
2019-01-06T10:00:39.359Z,100823.00
2019-01-06T10:03:26.478Z,100816.00
2019-01-06T10:06:00.068Z,100815.00
2019-01-06T10:08:46.067Z,100827.00
2019-01-06T10:11:33.287Z,100826.00
2019-01-06T10:14:04.134Z,100819.00
2019-01-06T10:16:58.461Z,100823.00
2019-01-06T10:19:35.289Z,100816.00
2019-01-06T10:22:14.945Z,100821.00
2019-01-06T10:24:52.076Z,100822.00
2019-01-06T10:27:23.429Z,100815.00
2019-01-06T10:29:54.511Z,100819.00
2019-01-06T10:32:40.705Z,100814.00
2019-01-06T10:35:11.661Z,100808.00
2019-01-06T10:37:58.047Z,100820.00
2019-01-06T10:40:45.488Z,100813.00
2019-01-06T10:43:16.328Z,100815.00
2019-01-06T10:45:55.670Z,100807.00
2019-01-06T10:48:26.504Z,100818.00
2019-01-06T10:50:57.340Z,100807.00
2019-01-06T10:53:40.763Z,100811.00
2019-01-06T10:56:23.493Z,100814.00
2019-01-06T10:58:57.901Z,100808.00
2019-01-06T11:01:29.149Z,100817.00
2019-01-06T11:04:16.461Z,100813.00
2019-01-06T11:06:47.229Z,100809.00
2019-01-06T11:09:24.100Z,100806.00
2019-01-06T11:12:03.952Z,100819.00
2019-01-06T11:14:38.049Z,100818.00
2019-01-06T11:17:09.193Z,100812.00
2019-01-06T11:19:40.043Z,100816.00
2019-01-06T11:22:17.333Z,100812.00
2019-01-06T11:24:54.415Z,100820.00
2019-01-06T11:27:42.141Z,100810.00
2019-01-06T11:30:13.606Z,100803.00
2019-01-06T11:32:44.756Z,100798.00
2019-01-06T11:35:23.555Z,100800.00
2019-01-06T11:38:03.520Z,100805.00
2019-01-06T11:40:52.587Z,100803.00
2019-01-06T11:43:23.797Z,100797.00
2019-01-06T11:45:57.689Z,100802.00
2019-01-06T11:48:34.831Z,100805.00
2019-01-06T11:51:05.665Z,100796.00
2019-01-06T11:53:42.067Z,100797.00
2019-01-06T11:56:29.357Z,100797.00
2019-01-06T11:59:00.805Z,100807.00
2019-01-06T12:01:37.784Z,100802.00
2019-01-06T12:04:14.571Z,100798.00
2019-01-06T12:06:48.477Z,100806.00
2019-01-06T12:09:35.592Z,100809.00
2019-01-06T12:12:16.066Z,100798.00
2019-01-06T12:15:04.922Z,100795.00
2019-01-06T12:17:44.959Z,100802.00
2019-01-06T12:20:18.676Z,100795.00
2019-01-06T12:22:58.833Z,100805.00
2019-01-06T12:25:45.786Z,100802.00
2019-01-06T12:28:34.872Z,100810.00
2019-01-06T12:31:11.631Z,100808.00
2019-01-06T12:33:45.277Z,100803.00
2019-01-06T12:36:25.582Z,100801.00
2019-01-06T12:38:59.066Z,100806.00
2019-01-06T12:41:42.232Z,100808.00
2019-01-06T12:44:30.961Z,100816.00
2019-01-06T12:47:13.749Z,100811.00
2019-01-06T12:50:00.498Z,100814.00
2019-01-06T12:52:46.368Z,100809.00
2019-01-06T12:55:19.940Z,100815.00
2019-01-06T12:57:53.748Z,100820.00
2019-01-06T13:00:24.554Z,100824.00
2019-01-06T13:03:11.986Z,100814.00
2019-01-06T13:05:55.092Z,100810.00
2019-01-06T13:08:32.071Z,100798.00
2019-01-06T13:11:19.352Z,100819.00
2019-01-06T13:14:06.192Z,100811.00
2019-01-06T13:16:53.461Z,100813.00
2019-01-06T13:19:40.158Z,100820.00
2019-01-06T13:22:27.250Z,100820.00
2019-01-06T13:25:16.713Z,100816.00
2019-01-06T13:27:53.507Z,100814.00
2019-01-06T13:30:40.540Z,100817.00
2019-01-06T13:33:27.989Z,100824.00
2019-01-06T13:36:04.795Z,100832.00
2019-01-06T13:38:36.163Z,100824.00
2019-01-06T13:41:24.895Z,100832.00
2019-01-06T13:44:01.372Z,100828.00
2019-01-06T13:46:50.744Z,100838.00
2019-01-06T13:49:24.431Z,100836.00
2019-01-06T13:52:07.679Z,100848.00
2019-01-06T13:54:54.892Z,100844.00
2019-01-06T13:57:42.527Z,100856.00
2019-01-06T14:00:30.164Z,100847.00
2019-01-06T14:03:07.351Z,100843.00
2019-01-06T14:05:43.954Z,100848.00
2019-01-06T14:08:30.895Z,100845.00
2019-01-06T14:11:17.856Z,100852.00
2019-01-06T14:13:51.458Z,100852.00
2019-01-06T14:16:38.679Z,100847.00
2019-01-06T14:19:09.413Z,100848.00
2019-01-06T14:21:56.571Z,100852.00
2019-01-06T14:24:36.588Z,100850.00
2019-01-06T14:27:24.108Z,100853.00
2019-01-06T14:30:11.838Z,100856.00
2019-01-06T14:32:54.970Z,100848.00
2019-01-06T14:35:26.108Z,100849.00
2019-01-06T14:37:57.248Z,100851.00
2019-01-06T14:40:28.102Z,100850.00
2019-01-06T14:43:15.413Z,100859.00
2019-01-06T14:45:55.383Z,100858.00
2019-01-06T14:48:32.842Z,100856.00
2019-01-06T14:51:18.806Z,100864.00
2019-01-06T14:54:05.602Z,100860.00
2019-01-06T14:56:36.412Z,100863.00
2019-01-06T14:59:07.467Z,100858.00
2019-01-06T15:01:54.903Z,100863.00
2019-01-06T15:04:41.722Z,100864.00
2019-01-06T15:07:29.601Z,100863.00
2019-01-06T15:10:00.633Z,100872.00
2019-01-06T15:12:31.423Z,100866.00
2019-01-06T15:15:05.515Z,100862.00
2019-01-06T15:17:39.320Z,100865.00
2019-01-06T15:20:26.960Z,100870.00
2019-01-06T15:23:13.907Z,100867.00
2019-01-06T15:25:47.658Z,100856.00
2019-01-06T15:28:33.336Z,100865.00
2019-01-06T15:31:20.743Z,100863.00
2019-01-06T15:33:57.232Z,100850.00
2019-01-06T15:36:31.540Z,100853.00
2019-01-06T15:39:02.585Z,100863.00
2019-01-06T15:41:39.303Z,100872.00
2019-01-06T15:44:22.485Z,100878.00
2019-01-06T15:46:59.102Z,100874.00
2019-01-06T15:49:33.007Z,100876.00
2019-01-06T15:52:09.278Z,100872.00
2019-01-06T15:54:40.041Z,100874.00
2019-01-06T15:57:10.838Z,100867.00
2019-01-06T15:59:54.166Z,100867.00
2019-01-06T16:02:41.679Z,100868.00
2019-01-06T16:05:29.309Z,100860.00
2019-01-06T16:08:00.101Z,100873.00
2019-01-06T16:10:46.140Z,100868.00
2019-01-06T16:13:19.994Z,100864.00
2019-01-06T16:15:54.001Z,100872.00
2019-01-06T16:18:25.059Z,100870.00
2019-01-06T16:20:58.623Z,100873.00
2019-01-06T16:23:30.092Z,100868.00
2019-01-06T16:26:17.612Z,100874.00
2019-01-06T16:28:48.449Z,100873.00
2019-01-06T16:31:25.471Z,100872.00
2019-01-06T16:33:56.800Z,100883.00
2019-01-06T16:36:27.587Z,100882.00
2019-01-06T16:38:58.627Z,100895.00
2019-01-06T16:41:35.247Z,100883.00
2019-01-06T16:44:06.353Z,100888.00
2019-01-06T16:46:53.610Z,100889.00
2019-01-06T16:49:39.351Z,100895.00
2019-01-06T16:52:11.899Z,100896.00
2019-01-06T16:55:01.320Z,100882.00
2019-01-06T16:57:38.454Z,100893.00
2019-01-06T17:00:13.155Z,100887.00
2019-01-06T17:02:47.162Z,100893.00
2019-01-06T17:05:20.967Z,100894.00
2019-01-06T17:08:08.227Z,100894.00
2019-01-06T17:10:39.340Z,100889.00
2019-01-06T17:13:13.049Z,100890.00
2019-01-06T17:15:49.825Z,100891.00
2019-01-06T17:18:23.427Z,100888.00
2019-01-06T17:20:56.721Z,100885.00
2019-01-06T17:23:45.683Z,100878.00
2019-01-06T17:26:25.327Z,100882.00
2019-01-06T17:28:59.133Z,100884.00
2019-01-06T17:31:32.843Z,100880.00
2019-01-06T17:34:03.887Z,100882.00
2019-01-06T17:36:47.506Z,100877.00
2019-01-06T17:39:36.622Z,100883.00
2019-01-06T17:42:07.434Z,100884.00
2019-01-06T17:44:54.257Z,100867.00
2019-01-06T17:47:28.231Z,100881.00
2019-01-06T17:50:15.403Z,100879.00
2019-01-06T17:53:02.739Z,100885.00
2019-01-06T17:55:34.093Z,100883.00
2019-01-06T17:58:07.640Z,100887.00
2019-01-06T18:00:41.651Z,100893.00
2019-01-06T18:03:12.712Z,100891.00
2019-01-06T18:06:01.517Z,100893.00
2019-01-06T18:08:38.523Z,100894.00
2019-01-06T18:11:11.761Z,100900.00
2019-01-06T18:13:58.558Z,100904.00
2019-01-06T18:16:38.292Z,100903.00
2019-01-06T18:19:09.153Z,100905.00
2019-01-06T18:21:57.001Z,100897.00
2019-01-06T18:24:46.439Z,100896.00
2019-01-06T18:27:33.211Z,100896.00
2019-01-06T18:30:04.291Z,100897.00
2019-01-06T18:32:44.141Z,100900.00
2019-01-06T18:35:14.979Z,100900.00
2019-01-06T18:37:55.444Z,100894.00
2019-01-06T18:40:26.582Z,100899.00
2019-01-06T18:43:00.505Z,100897.00
2019-01-06T18:45:40.262Z,100895.00
2019-01-06T18:48:26.550Z,100901.00
2019-01-06T18:51:06.731Z,100891.00
2019-01-06T18:53:40.191Z,100889.00
2019-01-06T18:56:13.433Z,100886.00
2019-01-06T18:58:59.826Z,100882.00
2019-01-06T19:01:40.059Z,100888.00
2019-01-06T19:04:27.266Z,100883.00
2019-01-06T19:06:58.317Z,100886.00
2019-01-06T19:09:29.567Z,100888.00
2019-01-06T19:12:12.079Z,100893.00
2019-01-06T19:14:59.396Z,100893.00
2019-01-06T19:17:41.400Z,100893.00
2019-01-06T19:20:11.711Z,100899.00
2019-01-06T19:22:42.562Z,100888.00
2019-01-06T19:25:32.856Z,100893.00
2019-01-06T19:28:28.837Z,100888.00
2019-01-06T19:31:02.823Z,100890.00
2019-01-06T19:33:33.943Z,100898.00
2019-01-06T19:36:04.780Z,100899.00
2019-01-06T19:38:52.196Z,100903.00
2019-01-06T19:41:41.072Z,100893.00
2019-01-06T19:44:14.859Z,100896.00
2019-01-06T19:47:03.833Z,100895.00
2019-01-06T19:49:50.953Z,100893.00
2019-01-06T19:52:24.335Z,100891.00
2019-01-06T19:55:01.127Z,100894.00
2019-01-06T19:57:49.072Z,100896.00
2019-01-06T20:00:25.936Z,100887.00
2019-01-06T20:03:08.662Z,100893.00
2019-01-06T20:05:54.756Z,100894.00
2019-01-06T20:08:25.596Z,100900.00
2019-01-06T20:11:12.517Z,100903.00
2019-01-06T20:13:55.536Z,100909.00
2019-01-06T20:16:35.578Z,100902.00
2019-01-06T20:19:09.652Z,100907.00
2019-01-06T20:21:45.963Z,100904.00
2019-01-06T20:24:33.894Z,100902.00
2019-01-06T20:27:13.762Z,100895.00
2019-01-06T20:29:56.669Z,100900.00
2019-01-06T20:32:36.734Z,100901.00
2019-01-06T20:35:24.363Z,100895.00
2019-01-06T20:38:10.466Z,100894.00
2019-01-06T20:40:41.616Z,100903.00
2019-01-06T20:43:21.144Z,100906.00
2019-01-06T20:45:52.180Z,100906.00
2019-01-06T20:48:23.381Z,100894.00
2019-01-06T20:50:56.930Z,100905.00
2019-01-06T20:53:34.528Z,100899.00
2019-01-06T20:56:21.544Z,100900.00
2019-01-06T20:58:58.220Z,100901.00
2019-01-06T21:01:45.237Z,100899.00
2019-01-06T21:04:21.577Z,100889.00
2019-01-06T21:07:08.619Z,100880.00
2019-01-06T21:09:39.702Z,100893.00
2019-01-06T21:12:29.133Z,100898.00
2019-01-06T21:15:16.518Z,100893.00
2019-01-06T21:17:47.792Z,100899.00
2019-01-06T21:20:18.948Z,100888.00
2019-01-06T21:23:07.474Z,100893.00
2019-01-06T21:25:54.425Z,100894.00
2019-01-06T21:28:25.260Z,100898.00
2019-01-06T21:31:12.167Z,100899.00
2019-01-06T21:33:43.469Z,100910.00
2019-01-06T21:36:30.840Z,100907.00
2019-01-06T21:39:13.772Z,100899.00
2019-01-06T21:42:02.731Z,100911.00
2019-01-06T21:44:51.906Z,100913.00
2019-01-06T21:47:25.939Z,100906.00
2019-01-06T21:49:57.069Z,100904.00
2019-01-06T21:52:30.659Z,100898.00
2019-01-06T21:55:07.740Z,100894.00
2019-01-06T21:57:44.920Z,100899.00
2019-01-06T22:00:28.058Z,100906.00
2019-01-06T22:03:15.338Z,100903.00
2019-01-06T22:05:55.125Z,100901.00
2019-01-06T22:08:42.041Z,100899.00
2019-01-06T22:11:13.074Z,100897.00
2019-01-06T22:13:48.828Z,100896.00
2019-01-06T22:16:38.209Z,100901.00
2019-01-06T22:19:25.207Z,100891.00
2019-01-06T22:22:12.333Z,100897.00
2019-01-06T22:24:43.140Z,100885.00
2019-01-06T22:27:22.835Z,100875.00
2019-01-06T22:30:03.044Z,100884.00
2019-01-06T22:32:39.791Z,100872.00
2019-01-06T22:35:26.737Z,100876.00
2019-01-06T22:38:15.801Z,100875.00
2019-01-06T22:40:46.563Z,100876.00
2019-01-06T22:43:33.374Z,100877.00
2019-01-06T22:46:07.355Z,100876.00
2019-01-06T22:48:54.773Z,100881.00
2019-01-06T22:51:40.617Z,100882.00
2019-01-06T22:54:27.430Z,100875.00
2019-01-06T22:57:00.887Z,100877.00
2019-01-06T22:59:48.326Z,100862.00
2019-01-06T23:02:31.134Z,100873.00
2019-01-06T23:05:04.609Z,100881.00
2019-01-06T23:07:41.973Z,100876.00
2019-01-06T23:10:15.543Z,100865.00
2019-01-06T23:12:49.106Z,100882.00
2019-01-06T23:15:28.833Z,100871.00
2019-01-06T23:18:02.425Z,100877.00
2019-01-06T23:20:49.821Z,100876.00
2019-01-06T23:23:29.715Z,100876.00
2019-01-06T23:26:02.135Z,100878.00
2019-01-06T23:28:36.086Z,100877.00
2019-01-06T23:31:22.999Z,100883.00
2019-01-06T23:34:02.769Z,100882.00
2019-01-06T23:36:33.792Z,100891.00
2019-01-06T23:39:07.932Z,100879.00
2019-01-06T23:44:44.565Z,100878.00
2019-01-06T23:47:31.997Z,100881.00
2019-01-06T23:50:09.181Z,100882.00
2019-01-06T23:52:40.005Z,100884.00
2019-01-06T23:55:27.035Z,100879.00
2019-01-06T23:58:13.143Z,100883.00
